createdAt,value
2022-09-27T00:03:05.615Z,4.75
2022-09-27T00:05:32.719Z,5.13
2022-09-27T00:07:59.594Z,4.93
2022-09-27T00:10:26.587Z,4.35
2022-09-27T00:12:54.083Z,3.85
2022-09-27T00:15:21.244Z,4.30
2022-09-27T00:17:52.161Z,4.30
2022-09-27T00:20:20.827Z,5.50
2022-09-27T00:22:49.097Z,6.78
2022-09-27T00:25:24.363Z,8.35
2022-09-27T00:27:52.247Z,8.73
2022-09-27T00:30:19.462Z,8.82
2022-09-27T00:32:46.356Z,11.60
2022-09-27T00:35:13.615Z,12.02
2022-09-27T00:37:40.512Z,9.88
2022-09-27T00:40:09.025Z,10.45
2022-09-27T00:42:36.565Z,11.18
2022-09-27T00:45:18.073Z,11.00
2022-09-27T00:48:01.528Z,10.75
2022-09-27T00:50:32.795Z,10.43
2022-09-27T00:53:26.103Z,11.05
2022-09-27T00:56:01.088Z,9.88
2022-09-27T00:58:33.051Z,9.10
2022-09-27T01:01:04.699Z,9.02
2022-09-27T01:03:52.789Z,8.00
2022-09-27T01:06:22.528Z,9.23
2022-09-27T01:08:49.823Z,7.45
2022-09-27T01:11:44.421Z,5.97
2022-09-27T01:14:29.586Z,5.28
2022-09-27T01:17:31.145Z,4.10
2022-09-27T01:20:00.794Z,4.40
2022-09-27T01:22:58.990Z,5.05
2022-09-27T01:25:43.931Z,4.65
2022-09-27T01:28:13.900Z,4.18
2022-09-27T01:30:43.757Z,4.38
2022-09-27T01:33:31.973Z,4.43
2022-09-27T01:36:17.207Z,3.90
2022-09-27T01:39:02.825Z,3.75
2022-09-27T01:41:39.103Z,3.75
2022-09-27T01:44:16.703Z,3.45
2022-09-27T01:46:51.200Z,3.35
2022-09-27T01:49:27.857Z,3.50
2022-09-27T01:52:06.239Z,3.58
2022-09-27T01:54:45.652Z,3.75
2022-09-27T01:57:20.375Z,3.83
2022-09-27T02:00:09.939Z,3.10
2022-09-27T02:02:46.258Z,2.85
2022-09-27T02:05:18.072Z,3.15
2022-09-27T02:07:52.923Z,3.17
2022-09-27T02:10:36.383Z,3.10
2022-09-27T02:13:12.646Z,3.80
2022-09-27T02:15:56.925Z,4.43
2022-09-27T02:18:55.430Z,3.10
2022-09-27T02:21:31.742Z,3.15
2022-09-27T02:24:03.855Z,3.42
2022-09-27T02:26:41.909Z,2.88
2022-09-27T02:29:24.727Z,3.45
2022-09-27T02:31:52.389Z,3.55
2022-09-27T02:34:25.694Z,3.78
2022-09-27T02:36:53.654Z,5.85
2022-09-27T02:39:22.755Z,6.05
2022-09-27T02:41:50.252Z,5.72
2022-09-27T02:44:18.811Z,6.38
2022-09-27T02:47:16.590Z,5.55
2022-09-27T02:50:00.159Z,6.30
2022-09-27T02:52:46.455Z,5.03
2022-09-27T02:55:21.518Z,5.53
2022-09-27T02:58:21.423Z,4.88
2022-09-27T03:01:16.107Z,5.13
2022-09-27T03:04:01.200Z,5.07
2022-09-27T03:06:29.920Z,4.30
2022-09-27T03:08:57.169Z,3.95
2022-09-27T03:11:24.292Z,3.67
2022-09-27T03:14:08.018Z,4.20
2022-09-27T03:16:37.891Z,3.50
2022-09-27T03:19:05.051Z,3.50
2022-09-27T03:21:32.113Z,3.53
2022-09-27T03:23:58.971Z,3.72
2022-09-27T03:26:26.038Z,3.40
2022-09-27T03:28:53.090Z,3.35
2022-09-27T03:31:20.160Z,3.10
2022-09-27T03:33:48.072Z,3.00
2022-09-27T03:36:15.414Z,3.08
2022-09-27T03:38:42.366Z,2.75
2022-09-27T03:41:09.221Z,2.90
2022-09-27T03:43:36.230Z,2.30
2022-09-27T03:46:03.254Z,1.73
2022-09-27T03:48:31.363Z,2.33
2022-09-27T03:50:58.566Z,2.00
2022-09-27T03:53:25.911Z,2.00
2022-09-27T03:55:52.957Z,2.25
2022-09-27T03:58:19.902Z,2.20
2022-09-27T04:00:47.274Z,2.42
2022-09-27T04:03:14.824Z,2.55
2022-09-27T04:05:41.762Z,2.40
2022-09-27T04:08:11.146Z,2.08
2022-09-27T04:10:38.582Z,2.38
2022-09-27T04:13:06.226Z,2.25
2022-09-27T04:15:33.264Z,2.28
2022-09-27T04:18:00.134Z,2.05
2022-09-27T04:20:28.265Z,2.40
2022-09-27T04:22:55.134Z,2.30
2022-09-27T04:25:22.293Z,2.40
2022-09-27T04:27:52.186Z,2.60
2022-09-27T04:30:19.273Z,3.25
2022-09-27T04:32:46.179Z,3.92
2022-09-27T04:35:32.821Z,3.85
2022-09-27T04:38:00.369Z,3.60
2022-09-27T04:40:27.286Z,3.08
2022-09-27T04:42:54.271Z,3.13
2022-09-27T04:45:21.610Z,2.40
2022-09-27T04:47:50.287Z,1.90
2022-09-27T04:50:18.179Z,2.58
2022-09-27T04:52:45.167Z,2.33
2022-09-27T04:55:12.073Z,2.70
2022-09-27T04:57:39.013Z,2.40
2022-09-27T05:00:06.485Z,2.63
2022-09-27T05:02:33.438Z,2.67
2022-09-27T05:05:00.734Z,3.20
2022-09-27T05:07:29.952Z,2.97
2022-09-27T05:09:57.091Z,2.80
2022-09-27T05:12:26.959Z,2.30
2022-09-27T05:14:54.677Z,2.10
2022-09-27T05:17:22.646Z,2.13
2022-09-27T05:19:50.209Z,2.25
2022-09-27T05:22:17.895Z,1.92
2022-09-27T05:24:45.138Z,1.80
2022-09-27T05:27:18.622Z,2.00
2022-09-27T05:29:46.147Z,2.00
2022-09-27T05:32:13.514Z,1.60
2022-09-27T05:34:40.583Z,1.98
2022-09-27T05:37:08.088Z,1.67
2022-09-27T05:39:35.286Z,1.40
2022-09-27T05:42:03.883Z,1.80
2022-09-27T05:44:31.596Z,1.70
2022-09-27T05:47:03.112Z,1.83
2022-09-27T05:49:30.394Z,1.80
2022-09-27T05:51:57.583Z,1.95
2022-09-27T05:54:24.971Z,2.30
2022-09-27T05:56:58.543Z,1.90
2022-09-27T05:59:26.741Z,2.00
2022-09-27T06:01:54.485Z,3.45
2022-09-27T06:04:21.965Z,2.72
2022-09-27T06:06:49.616Z,2.38
2022-09-27T06:09:17.640Z,2.33
2022-09-27T06:11:45.561Z,2.30
2022-09-27T06:14:14.068Z,3.15
2022-09-27T06:16:45.765Z,2.85
2022-09-27T06:19:13.250Z,5.15
2022-09-27T06:21:40.359Z,6.35
2022-09-27T06:24:07.612Z,37.20
2022-09-27T06:26:35.200Z,38.00
2022-09-27T06:29:02.130Z,20.23
2022-09-27T06:31:29.233Z,43.92
2022-09-27T06:33:56.115Z,26.98
2022-09-27T06:36:23.184Z,15.93
2022-09-27T06:38:50.055Z,6.90
2022-09-27T06:41:17.074Z,10.50
2022-09-27T06:43:44.134Z,5.57
2022-09-27T06:46:11.308Z,12.55
2022-09-27T06:48:39.415Z,11.02
2022-09-27T06:51:07.000Z,7.63
2022-09-27T06:53:33.909Z,2.67
2022-09-27T06:56:01.809Z,3.35
2022-09-27T06:58:48.004Z,6.47
2022-09-27T07:01:17.046Z,3.73
2022-09-27T07:03:44.885Z,4.80
2022-09-27T07:06:23.010Z,3.45
2022-09-27T07:08:52.516Z,3.03
2022-09-27T07:11:19.828Z,2.83
2022-09-27T07:13:46.903Z,2.20
2022-09-27T07:16:17.047Z,2.05
2022-09-27T07:18:47.817Z,2.10
2022-09-27T07:21:33.151Z,2.10
2022-09-27T07:24:00.364Z,1.70
2022-09-27T07:26:27.898Z,2.00
2022-09-27T07:28:55.073Z,2.30
2022-09-27T07:31:23.306Z,2.30
2022-09-27T07:33:51.111Z,2.40
2022-09-27T07:36:20.103Z,2.10
2022-09-27T07:38:47.271Z,3.33
2022-09-27T07:41:15.302Z,2.30
2022-09-27T07:43:44.513Z,2.10
2022-09-27T07:46:12.689Z,2.50
2022-09-27T07:48:39.900Z,2.65
2022-09-27T07:51:08.875Z,2.22
2022-09-27T07:53:36.033Z,2.42
2022-09-27T07:56:05.601Z,3.53
2022-09-27T07:58:33.597Z,2.95
2022-09-27T08:01:01.574Z,4.07
2022-09-27T08:03:29.311Z,4.43
2022-09-27T08:05:56.590Z,5.70
2022-09-27T08:08:24.528Z,3.85
2022-09-27T08:10:51.564Z,2.60
2022-09-27T08:13:20.617Z,4.03
2022-09-27T08:15:48.919Z,4.32
2022-09-27T08:18:17.989Z,6.40
2022-09-27T08:20:45.331Z,4.50
2022-09-27T08:23:12.329Z,9.13
2022-09-27T08:25:41.195Z,6.97
2022-09-27T08:28:09.648Z,7.30
2022-09-27T08:30:36.557Z,6.38
2022-09-27T08:33:03.746Z,5.20
2022-09-27T08:35:34.849Z,5.82
2022-09-27T08:38:02.944Z,5.00
2022-09-27T08:40:42.429Z,4.10
2022-09-27T08:43:33.548Z,2.33
2022-09-27T08:46:08.014Z,2.88
2022-09-27T08:48:37.724Z,2.80
2022-09-27T08:51:06.997Z,2.70
2022-09-27T08:53:41.316Z,2.40
2022-09-27T08:56:10.539Z,2.90
2022-09-27T08:58:53.177Z,2.40
2022-09-27T09:01:22.132Z,2.42
2022-09-27T09:03:57.054Z,3.20
2022-09-27T09:06:32.103Z,2.97
2022-09-27T09:09:17.555Z,3.05
2022-09-27T09:12:18.900Z,2.63
2022-09-27T09:15:01.455Z,3.05
2022-09-27T09:17:52.992Z,3.10
2022-09-27T09:21:01.259Z,3.80
2022-09-27T09:24:00.804Z,3.22
2022-09-27T09:26:50.515Z,3.13
2022-09-27T09:29:40.291Z,2.22
2022-09-27T09:32:32.181Z,1.95
2022-09-27T09:35:03.809Z,2.90
2022-09-27T09:37:50.818Z,2.70
2022-09-27T09:43:29.322Z,5.20
2022-09-27T09:46:17.996Z,2.95
2022-09-27T09:48:50.045Z,3.78
2022-09-27T09:51:32.566Z,3.83
2022-09-27T09:54:06.642Z,4.03
2022-09-27T09:56:40.655Z,3.13
2022-09-27T09:59:19.154Z,3.80
2022-09-27T10:01:51.106Z,3.92
2022-09-27T10:04:25.314Z,3.70
2022-09-27T10:06:52.904Z,3.85
2022-09-27T10:09:25.234Z,3.25
2022-09-27T10:11:52.764Z,3.55
2022-09-27T10:14:22.796Z,3.40
2022-09-27T10:16:56.403Z,3.83
2022-09-27T10:19:30.564Z,4.22
2022-09-27T10:22:09.957Z,4.22
2022-09-27T10:24:58.505Z,4.13
2022-09-27T10:27:27.051Z,3.85
2022-09-27T10:29:59.405Z,3.70
2022-09-27T10:32:36.784Z,3.35
2022-09-27T10:35:30.697Z,3.30
2022-09-27T10:38:17.273Z,7.22
2022-09-27T10:40:45.803Z,4.15
2022-09-27T10:43:34.415Z,6.75
2022-09-27T10:46:21.129Z,5.00
2022-09-27T10:48:48.195Z,3.65
2022-09-27T10:51:26.434Z,3.45
2022-09-27T10:53:54.164Z,4.05
2022-09-27T10:56:29.363Z,3.20
2022-09-27T10:58:58.347Z,6.28
2022-09-27T11:01:26.368Z,5.57
2022-09-27T11:04:00.134Z,4.47
2022-09-27T11:06:27.264Z,2.70
2022-09-27T11:08:55.644Z,2.38
2022-09-27T11:11:28.637Z,1.70
2022-09-27T11:14:00.174Z,1.90
2022-09-27T11:16:41.568Z,2.70
2022-09-27T11:19:29.961Z,2.00
2022-09-27T11:22:35.916Z,2.10
2022-09-27T11:25:31.982Z,2.05
2022-09-27T11:28:36.838Z,2.22
2022-09-27T11:31:25.142Z,2.50
2022-09-27T11:34:23.301Z,3.35
2022-09-27T11:37:08.663Z,2.90
2022-09-27T11:39:55.554Z,2.78
2022-09-27T11:42:55.935Z,3.13
2022-09-27T11:46:03.319Z,3.15
2022-09-27T11:48:45.602Z,3.40
2022-09-27T11:51:12.456Z,3.40
2022-09-27T11:54:13.073Z,3.45
2022-09-27T11:56:49.085Z,3.53
2022-09-27T11:59:49.575Z,3.08
2022-09-27T12:02:53.784Z,3.95
2022-09-27T12:05:59.928Z,6.07
2022-09-27T12:08:35.472Z,3.35
2022-09-27T12:11:09.087Z,3.20
2022-09-27T12:13:57.021Z,2.80
2022-09-27T12:16:28.815Z,3.58
2022-09-27T12:19:03.010Z,3.28
2022-09-27T12:21:33.479Z,3.83
2022-09-27T12:24:01.991Z,4.38
2022-09-27T12:26:36.513Z,4.75
2022-09-27T12:32:20.371Z,5.32
2022-09-27T12:35:14.972Z,5.00
2022-09-27T12:37:48.537Z,7.55
2022-09-27T12:40:18.245Z,5.13
2022-09-27T12:42:53.286Z,3.92
2022-09-27T12:45:34.618Z,3.00
2022-09-27T12:48:14.929Z,2.53
2022-09-27T12:50:54.147Z,1.58
2022-09-27T12:53:24.082Z,1.90
2022-09-27T12:56:11.868Z,1.35
2022-09-27T12:58:57.469Z,1.05
2022-09-27T13:01:51.804Z,2.60
2022-09-27T13:04:44.426Z,2.83
2022-09-27T13:07:32.671Z,2.55
2022-09-27T13:10:26.514Z,2.63
2022-09-27T13:12:55.249Z,2.58
2022-09-27T13:15:34.560Z,2.47
2022-09-27T13:18:07.938Z,9.70
2022-09-27T13:20:34.807Z,5.93
2022-09-27T13:23:05.469Z,3.40
2022-09-27T13:25:49.638Z,8.30
2022-09-27T13:28:29.704Z,5.05
2022-09-27T13:34:41.409Z,4.25
2022-09-27T13:37:26.921Z,4.05
2022-09-27T13:40:13.366Z,4.28
2022-09-27T13:42:50.838Z,4.90
2022-09-27T13:45:43.227Z,4.18
2022-09-27T13:48:26.084Z,4.28
2022-09-27T13:51:04.698Z,3.35
2022-09-27T13:53:38.227Z,3.65
2022-09-27T13:56:05.944Z,3.30
2022-09-27T13:59:14.707Z,3.28
2022-09-27T14:01:59.885Z,4.28
2022-09-27T14:04:35.493Z,2.60
2022-09-27T14:07:04.291Z,2.50
2022-09-27T14:09:35.659Z,2.67
2022-09-27T14:12:09.023Z,2.97
2022-09-27T14:14:36.616Z,2.45
2022-09-27T14:17:10.171Z,2.65
2022-09-27T14:19:41.631Z,2.65
2022-09-27T14:22:16.759Z,2.42
2022-09-27T14:24:55.186Z,2.13
2022-09-27T14:27:26.551Z,1.80
2022-09-27T14:30:01.090Z,1.90
2022-09-27T14:32:32.391Z,1.58
2022-09-27T14:35:32.140Z,1.75
2022-09-27T14:38:15.757Z,1.70
2022-09-27T14:40:53.867Z,1.95
2022-09-27T14:43:22.593Z,1.95
2022-09-27T14:45:53.283Z,2.53
2022-09-27T14:48:28.754Z,2.40
2022-09-27T14:51:19.507Z,2.63
2022-09-27T14:53:49.862Z,2.20
2022-09-27T14:56:23.047Z,2.88
2022-09-27T14:59:02.486Z,3.17
2022-09-27T15:01:30.693Z,3.20
2022-09-27T15:04:06.153Z,2.88
2022-09-27T15:06:36.819Z,3.10
2022-09-27T15:09:05.315Z,3.03
2022-09-27T15:11:33.537Z,2.65
2022-09-27T15:14:03.394Z,2.60
2022-09-27T15:16:31.541Z,2.88
2022-09-27T15:19:14.287Z,2.92
2022-09-27T15:21:41.125Z,3.58
2022-09-27T15:24:44.162Z,3.33
2022-09-27T15:27:21.713Z,2.90
2022-09-27T15:29:54.125Z,3.10
2022-09-27T15:32:24.202Z,2.92
2022-09-27T15:34:51.748Z,2.38
2022-09-27T15:37:29.043Z,3.20
2022-09-27T15:40:08.891Z,3.00
2022-09-27T15:42:58.683Z,3.10
2022-09-27T15:45:39.064Z,2.85
2022-09-27T15:48:15.713Z,3.85
2022-09-27T15:50:42.823Z,3.25
2022-09-27T15:53:10.941Z,3.30
2022-09-27T15:55:43.691Z,3.47
2022-09-27T15:58:19.464Z,4.13
2022-09-27T16:00:54.571Z,3.73
2022-09-27T16:03:21.626Z,3.65
2022-09-27T16:05:48.654Z,3.08
2022-09-27T16:08:15.644Z,2.47
2022-09-27T16:10:46.943Z,3.20
2022-09-27T16:13:13.810Z,2.75
2022-09-27T16:15:41.202Z,2.70
2022-09-27T16:18:08.040Z,3.00
2022-09-27T16:20:34.993Z,3.65
2022-09-27T16:23:02.684Z,3.30
2022-09-27T16:25:29.591Z,3.45
2022-09-27T16:28:04.008Z,4.10
2022-09-27T16:30:31.466Z,3.35
2022-09-27T16:32:59.392Z,3.75
2022-09-27T16:35:28.292Z,6.55
2022-09-27T16:37:55.295Z,4.40
2022-09-27T16:40:22.704Z,4.63
2022-09-27T16:42:50.140Z,4.68
2022-09-27T16:45:19.553Z,4.65
2022-09-27T16:48:01.494Z,4.53
2022-09-27T16:50:47.083Z,5.22
2022-09-27T16:53:13.929Z,5.18
2022-09-27T16:55:40.840Z,6.82
2022-09-27T16:58:08.827Z,6.57
2022-09-27T17:00:35.795Z,7.10
2022-09-27T17:03:02.698Z,7.35
2022-09-27T17:05:29.688Z,6.05
2022-09-27T17:07:56.578Z,4.60
2022-09-27T17:10:26.908Z,5.93
2022-09-27T17:12:54.029Z,6.80
2022-09-27T17:15:20.840Z,6.63
2022-09-27T17:17:51.026Z,6.85
2022-09-27T17:20:18.438Z,7.05
2022-09-27T17:22:48.098Z,8.23
2022-09-27T17:25:15.064Z,8.65
2022-09-27T17:27:41.995Z,9.00
2022-09-27T17:30:09.287Z,9.23
2022-09-27T17:32:36.121Z,8.75
2022-09-27T17:35:03.181Z,8.60
2022-09-27T17:37:32.689Z,8.20
2022-09-27T17:39:59.470Z,7.05
2022-09-27T17:42:29.922Z,7.20
2022-09-27T17:44:56.783Z,7.95
2022-09-27T17:47:42.418Z,7.28
2022-09-27T17:50:27.218Z,7.45
2022-09-27T17:52:56.612Z,7.97
2022-09-27T17:55:24.951Z,7.78
2022-09-27T17:57:52.161Z,7.28
2022-09-27T18:00:20.541Z,7.70
2022-09-27T18:02:47.824Z,7.93
2022-09-27T18:05:15.065Z,7.22
2022-09-27T18:07:42.519Z,8.02
2022-09-27T18:10:09.376Z,8.57
2022-09-27T18:12:36.353Z,8.05
2022-09-27T18:15:04.375Z,9.40
2022-09-27T18:17:31.341Z,8.40
2022-09-27T18:20:00.547Z,8.75
2022-09-27T18:22:31.388Z,8.43
2022-09-27T18:24:58.246Z,8.02
2022-09-27T18:27:25.123Z,8.80
2022-09-27T18:29:52.714Z,9.40
2022-09-27T18:32:19.518Z,8.70
2022-09-27T18:34:46.492Z,9.40
2022-09-27T18:37:13.321Z,10.45
2022-09-27T18:39:41.023Z,11.10
2022-09-27T18:42:09.236Z,11.73
2022-09-27T18:44:36.402Z,21.15
2022-09-27T18:47:03.373Z,12.65
2022-09-27T18:49:33.869Z,12.05
2022-09-27T18:52:01.414Z,10.93
2022-09-27T18:54:28.313Z,11.80
2022-09-27T18:56:55.051Z,10.73
2022-09-27T18:59:23.710Z,10.77
2022-09-27T19:01:50.948Z,11.70
2022-09-27T19:04:26.477Z,12.63
2022-09-27T19:06:54.730Z,11.73
2022-09-27T19:09:21.712Z,15.43
2022-09-27T19:11:48.790Z,18.35
2022-09-27T19:14:17.957Z,18.55
2022-09-27T19:16:47.377Z,19.60
2022-09-27T19:19:18.536Z,22.48
2022-09-27T19:21:46.007Z,22.38
2022-09-27T19:24:19.080Z,21.90
2022-09-27T19:26:45.973Z,21.77
2022-09-27T19:29:14.683Z,22.55
2022-09-27T19:31:42.169Z,24.25
2022-09-27T19:34:09.171Z,25.73
2022-09-27T19:36:35.977Z,23.80
2022-09-27T19:39:03.503Z,25.15
2022-09-27T19:41:30.500Z,22.95
2022-09-27T19:43:57.580Z,23.50
2022-09-27T19:46:26.117Z,22.10
2022-09-27T19:48:54.270Z,21.33
2022-09-27T19:51:26.638Z,21.13
2022-09-27T19:53:54.435Z,18.67
2022-09-27T19:56:21.987Z,18.98
2022-09-27T19:58:48.854Z,18.08
2022-09-27T20:01:21.653Z,18.38
2022-09-27T20:03:50.146Z,21.50
2022-09-27T20:06:19.251Z,21.45
2022-09-27T20:08:48.137Z,24.38
2022-09-27T20:11:18.119Z,22.10
2022-09-27T20:13:45.465Z,22.02
2022-09-27T20:16:20.311Z,18.38
2022-09-27T20:18:53.091Z,14.43
2022-09-27T20:21:26.511Z,13.13
2022-09-27T20:23:55.852Z,12.70
2022-09-27T20:26:24.531Z,10.93
2022-09-27T20:28:54.128Z,10.60
2022-09-27T20:31:23.385Z,10.13
2022-09-27T20:33:51.197Z,10.43
2022-09-27T20:39:17.886Z,7.63
2022-09-27T20:41:52.356Z,8.57
2022-09-27T20:44:20.725Z,6.97
2022-09-27T20:46:48.466Z,5.25
2022-09-27T20:49:18.684Z,5.30
2022-09-27T20:51:51.645Z,5.95
2022-09-27T20:54:18.775Z,6.40
2022-09-27T20:56:47.795Z,6.50
2022-09-27T20:59:20.242Z,6.72
2022-09-27T21:01:49.548Z,6.50
2022-09-27T21:04:18.467Z,6.50
2022-09-27T21:06:46.061Z,7.90
2022-09-27T21:09:20.086Z,9.70
2022-09-27T21:11:48.760Z,11.68
2022-09-27T21:14:15.784Z,11.52
2022-09-27T21:16:42.737Z,10.45
2022-09-27T21:19:10.060Z,10.77
2022-09-27T21:21:37.101Z,9.52
2022-09-27T21:24:04.135Z,8.93
2022-09-27T21:26:33.002Z,7.80
2022-09-27T21:29:05.121Z,8.52
2022-09-27T21:31:33.335Z,9.85
2022-09-27T21:34:03.459Z,9.32
2022-09-27T21:36:32.481Z,10.70
2022-09-27T21:38:59.635Z,11.88
2022-09-27T21:41:27.536Z,10.35
2022-09-27T21:43:55.414Z,10.70
2022-09-27T21:46:25.055Z,10.88
2022-09-27T21:48:55.806Z,10.35
2022-09-27T21:51:27.935Z,9.45
2022-09-27T21:53:57.333Z,8.30
2022-09-27T21:56:26.313Z,7.72
2022-09-27T21:58:53.178Z,9.13
2022-09-27T22:01:31.131Z,8.15
2022-09-27T22:03:59.490Z,7.53
2022-09-27T22:06:31.619Z,7.85
2022-09-27T22:09:00.419Z,6.10
2022-09-27T22:11:30.782Z,6.18
2022-09-27T22:13:58.083Z,5.32
2022-09-27T22:16:27.077Z,4.60
2022-09-27T22:18:55.978Z,4.80
2022-09-27T22:21:26.275Z,4.47
2022-09-27T22:23:57.764Z,4.50
2022-09-27T22:26:27.098Z,3.78
2022-09-27T22:28:54.721Z,3.40
2022-09-27T22:31:23.411Z,3.45
2022-09-27T22:33:52.587Z,3.78
2022-09-27T22:36:19.671Z,3.63
2022-09-27T22:38:48.021Z,3.00
2022-09-27T22:41:14.891Z,3.17
2022-09-27T22:43:42.515Z,3.40
2022-09-27T22:46:09.854Z,3.88
2022-09-27T22:48:37.066Z,3.85
2022-09-27T22:51:04.674Z,4.18
2022-09-27T22:53:32.712Z,3.15
2022-09-27T22:56:18.502Z,2.65
2022-09-27T22:58:47.522Z,3.70
2022-09-27T23:01:31.234Z,3.65
2022-09-27T23:03:58.656Z,4.30
2022-09-27T23:06:25.729Z,2.70
2022-09-27T23:08:53.707Z,2.97
2022-09-27T23:11:22.603Z,4.13
2022-09-27T23:13:51.141Z,2.80
2022-09-27T23:16:20.817Z,2.63
2022-09-27T23:18:50.349Z,2.80
2022-09-27T23:21:17.269Z,2.60
2022-09-27T23:23:45.946Z,2.45
2022-09-27T23:26:15.000Z,2.88
2022-09-27T23:28:41.790Z,2.50
2022-09-27T23:31:14.164Z,2.85
2022-09-27T23:33:49.090Z,3.15
2022-09-27T23:36:24.082Z,3.58
2022-09-27T23:38:51.117Z,3.47
2022-09-27T23:41:18.434Z,3.80
2022-09-27T23:43:45.586Z,3.60
2022-09-27T23:46:13.049Z,3.70
2022-09-27T23:48:40.691Z,6.10
2022-09-27T23:51:16.585Z,4.00
2022-09-27T23:53:44.677Z,4.05
2022-09-27T23:56:16.131Z,3.80
2022-09-27T23:58:45.303Z,3.65
